createdAt,value
2019-06-26T00:00:25.059Z,23.96
2019-06-26T00:02:54.095Z,23.93
2019-06-26T00:05:23.158Z,23.87
2019-06-26T00:07:52.214Z,23.86
2019-06-26T00:10:21.528Z,23.85
2019-06-26T00:12:50.624Z,23.83
2019-06-26T00:15:19.995Z,23.77
2019-06-26T00:17:49.073Z,23.73
2019-06-26T00:20:20.041Z,23.74
2019-06-26T00:22:49.141Z,23.68
2019-06-26T00:25:18.228Z,23.57
2019-06-26T00:27:47.322Z,23.54
2019-06-26T00:30:16.554Z,23.58
2019-06-26T00:32:45.718Z,23.45
2019-06-26T00:35:14.822Z,23.47
2019-06-26T00:37:43.919Z,23.48
2019-06-26T00:40:13.710Z,23.48
2019-06-26T00:42:42.756Z,23.43
2019-06-26T00:45:11.893Z,23.38
2019-06-26T00:47:41.109Z,23.44
2019-06-26T00:50:10.894Z,23.44
2019-06-26T00:52:40.435Z,23.33
2019-06-26T00:55:09.736Z,23.31
2019-06-26T00:57:38.830Z,23.23
2019-06-26T01:00:10.729Z,23.22
2019-06-26T01:02:39.938Z,23.23
2019-06-26T01:05:10.601Z,23.17
2019-06-26T01:07:39.672Z,23.16
2019-06-26T01:10:09.788Z,23.15
2019-06-26T01:12:38.824Z,23.10
2019-06-26T01:15:08.059Z,23.10
2019-06-26T01:17:37.430Z,23.11
2019-06-26T01:20:07.439Z,23.09
2019-06-26T01:22:36.721Z,23.09
2019-06-26T01:25:06.046Z,23.05
2019-06-26T01:27:35.119Z,22.96
2019-06-26T01:30:05.125Z,22.93
2019-06-26T01:32:34.563Z,22.82
2019-06-26T01:35:03.896Z,22.83
2019-06-26T01:37:32.987Z,22.75
2019-06-26T01:40:02.248Z,22.69
2019-06-26T01:42:31.343Z,22.69
2019-06-26T01:45:00.584Z,22.72
2019-06-26T01:47:29.905Z,22.78
2019-06-26T01:49:59.011Z,22.79
2019-06-26T01:52:28.377Z,22.77
2019-06-26T01:54:57.471Z,22.72
2019-06-26T01:57:26.905Z,22.71
2019-06-26T01:59:58.259Z,22.69
2019-06-26T02:02:27.357Z,22.73
2019-06-26T02:04:56.402Z,22.69
2019-06-26T02:07:25.644Z,22.68
2019-06-26T02:09:54.881Z,22.61
2019-06-26T02:12:24.205Z,22.61
2019-06-26T02:14:53.249Z,22.54
2019-06-26T02:17:22.615Z,22.64
2019-06-26T02:19:51.817Z,22.59
2019-06-26T02:22:20.909Z,22.52
2019-06-26T02:24:50.430Z,22.58
2019-06-26T02:27:19.901Z,22.53
2019-06-26T02:29:48.990Z,22.51
2019-06-26T02:32:18.036Z,22.51
2019-06-26T02:34:47.179Z,22.55
2019-06-26T02:37:16.284Z,22.48
2019-06-26T02:39:45.516Z,22.49
2019-06-26T02:42:14.644Z,22.42
2019-06-26T02:44:53.152Z,22.38
2019-06-26T02:47:20.143Z,22.38
2019-06-26T02:49:46.376Z,22.39
2019-06-26T02:52:15.457Z,22.43
2019-06-26T02:54:44.577Z,22.41
2019-06-26T02:57:14.029Z,22.34
2019-06-26T02:59:43.125Z,22.34
2019-06-26T03:02:12.457Z,22.34
2019-06-26T03:04:41.589Z,22.35
2019-06-26T03:07:10.778Z,22.40
2019-06-26T03:09:40.069Z,22.32
2019-06-26T03:12:09.207Z,22.26
2019-06-26T03:14:38.502Z,22.28
2019-06-26T03:17:07.669Z,22.23
2019-06-26T03:19:36.993Z,22.15
2019-06-26T03:22:06.091Z,22.13
2019-06-26T03:24:35.360Z,22.21
2019-06-26T03:27:04.674Z,22.16
2019-06-26T03:29:34.056Z,22.11
2019-06-26T03:32:03.178Z,22.02
2019-06-26T03:34:32.255Z,22.03
2019-06-26T03:37:01.522Z,21.93
2019-06-26T03:39:30.713Z,21.96
2019-06-26T03:41:59.838Z,21.95
2019-06-26T03:44:29.105Z,21.91
2019-06-26T03:46:58.345Z,21.89
2019-06-26T03:49:27.571Z,21.86
2019-06-26T03:51:56.784Z,21.85
2019-06-26T03:54:26.014Z,21.81
2019-06-26T03:56:55.252Z,21.83
2019-06-26T03:59:24.515Z,21.81
2019-06-26T04:01:53.862Z,21.77
2019-06-26T04:04:22.909Z,21.81
2019-06-26T04:06:52.154Z,21.76
2019-06-26T04:09:21.362Z,21.81
2019-06-26T04:11:50.717Z,21.87
2019-06-26T04:14:20.221Z,21.86
2019-06-26T04:16:49.343Z,21.96
2019-06-26T04:19:18.428Z,21.94
2019-06-26T04:21:47.507Z,21.80
2019-06-26T04:24:16.748Z,21.88
2019-06-26T04:26:46.032Z,21.94
2019-06-26T04:29:15.213Z,21.91
2019-06-26T04:31:44.306Z,22.02
2019-06-26T04:34:13.547Z,22.07
2019-06-26T04:36:42.805Z,22.10
2019-06-26T04:39:12.254Z,22.14
2019-06-26T04:41:41.380Z,22.28
2019-06-26T04:44:10.458Z,22.29
2019-06-26T04:46:39.586Z,22.38
2019-06-26T04:49:08.941Z,22.40
2019-06-26T04:51:38.147Z,22.53
2019-06-26T04:54:07.356Z,22.51
2019-06-26T04:56:36.489Z,22.55
2019-06-26T04:59:05.813Z,22.63
2019-06-26T05:01:35.939Z,22.65
2019-06-26T05:04:05.263Z,22.80
2019-06-26T05:06:34.577Z,22.93
2019-06-26T05:09:04.694Z,23.01
2019-06-26T05:11:33.806Z,23.02
2019-06-26T05:14:03.095Z,23.01
2019-06-26T05:16:32.212Z,23.10
2019-06-26T05:19:01.476Z,23.18
2019-06-26T05:21:30.715Z,23.32
2019-06-26T05:24:00.072Z,23.41
2019-06-26T05:26:29.158Z,23.23
2019-06-26T05:28:58.385Z,23.37
2019-06-26T05:31:27.689Z,23.46
2019-06-26T05:33:56.790Z,23.62
2019-06-26T05:36:25.922Z,23.74
2019-06-26T05:38:55.399Z,23.71
2019-06-26T05:41:24.505Z,23.83
2019-06-26T05:43:53.832Z,23.78
2019-06-26T05:46:30.898Z,23.99
2019-06-26T05:48:54.119Z,24.13
2019-06-26T05:51:23.370Z,24.24
2019-06-26T05:53:52.573Z,24.41
2019-06-26T05:56:21.776Z,24.46
2019-06-26T05:58:51.006Z,24.62
2019-06-26T06:01:20.406Z,24.69
2019-06-26T06:03:49.482Z,24.72
2019-06-26T06:06:18.554Z,24.94
2019-06-26T06:08:47.976Z,25.10
2019-06-26T06:11:17.043Z,25.11
2019-06-26T06:13:46.358Z,25.20
2019-06-26T06:16:15.615Z,25.29
2019-06-26T06:18:44.757Z,25.49
2019-06-26T06:21:14.270Z,25.68
2019-06-26T06:23:43.327Z,25.94
2019-06-26T06:26:12.382Z,26.07
2019-06-26T06:28:42.635Z,26.25
2019-06-26T06:31:11.969Z,26.41
2019-06-26T06:33:41.203Z,26.62
2019-06-26T06:36:10.510Z,26.85
2019-06-26T06:38:39.540Z,27.05
2019-06-26T06:41:08.859Z,27.23
2019-06-26T06:43:37.963Z,27.45
2019-06-26T06:46:07.124Z,27.67
2019-06-26T06:48:36.262Z,27.86
2019-06-26T06:51:05.989Z,27.96
2019-06-26T06:53:35.065Z,28.16
2019-06-26T06:56:04.383Z,28.27
2019-06-26T06:58:33.504Z,28.36
2019-06-26T07:01:02.908Z,28.51
2019-06-26T07:03:31.983Z,28.68
2019-06-26T07:06:01.212Z,28.78
2019-06-26T07:08:32.102Z,28.95
2019-06-26T07:11:01.378Z,29.05
2019-06-26T07:13:30.564Z,29.19
2019-06-26T07:15:59.836Z,29.29
2019-06-26T07:18:29.083Z,29.37
2019-06-26T07:20:58.366Z,29.56
2019-06-26T07:23:27.409Z,29.69
2019-06-26T07:25:56.640Z,29.84
2019-06-26T07:28:25.911Z,29.93
2019-06-26T07:30:55.131Z,30.06
2019-06-26T07:33:24.464Z,30.21
2019-06-26T07:35:53.676Z,30.32
2019-06-26T07:38:22.768Z,30.41
2019-06-26T07:40:52.034Z,30.54
2019-06-26T07:43:21.273Z,30.72
2019-06-26T07:45:50.546Z,30.88
2019-06-26T07:48:19.600Z,31.10
2019-06-26T07:50:48.783Z,31.23
2019-06-26T07:53:18.029Z,31.32
2019-06-26T07:55:47.360Z,31.30
2019-06-26T07:58:16.669Z,31.40
2019-06-26T08:00:45.765Z,31.48
2019-06-26T08:03:14.964Z,31.50
2019-06-26T08:05:44.253Z,31.57
2019-06-26T08:08:14.773Z,31.67
2019-06-26T08:10:43.958Z,31.73
2019-06-26T08:13:13.082Z,32.03
2019-06-26T08:15:42.143Z,32.22
2019-06-26T08:18:11.341Z,32.36
2019-06-26T08:20:55.211Z,32.48
2019-06-26T08:23:11.450Z,32.54
2019-06-26T08:25:42.380Z,32.70
2019-06-26T08:28:11.487Z,32.79
2019-06-26T08:30:40.496Z,32.93
2019-06-26T08:33:09.524Z,32.97
2019-06-26T08:35:38.917Z,33.07
2019-06-26T08:38:12.504Z,33.19
2019-06-26T08:40:38.813Z,33.18
2019-06-26T08:43:07.941Z,33.13
2019-06-26T08:45:37.665Z,33.27
2019-06-26T08:48:17.342Z,33.41
2019-06-26T08:50:37.641Z,33.48
2019-06-26T08:53:06.856Z,33.55
2019-06-26T08:55:36.115Z,33.78
2019-06-26T08:58:06.439Z,33.97
2019-06-26T09:00:35.455Z,33.95
2019-06-26T09:03:05.043Z,33.87
2019-06-26T09:05:47.580Z,33.94
2019-06-26T09:08:05.129Z,34.16
2019-06-26T09:10:34.836Z,34.26
2019-06-26T09:13:03.965Z,34.23
2019-06-26T09:15:33.295Z,34.56
2019-06-26T09:18:02.456Z,34.74
2019-06-26T09:20:37.453Z,34.63
2019-06-26T09:23:06.774Z,34.62
2019-06-26T09:25:35.923Z,34.61
2019-06-26T09:28:05.373Z,34.79
2019-06-26T09:30:34.698Z,34.45
2019-06-26T09:33:03.875Z,34.57
2019-06-26T09:35:32.967Z,34.65
2019-06-26T09:38:02.050Z,34.90
2019-06-26T09:40:32.104Z,34.99
2019-06-26T09:43:01.482Z,35.09
2019-06-26T09:45:30.680Z,35.30
2019-06-26T09:47:59.841Z,35.43
2019-06-26T09:50:29.114Z,35.13
2019-06-26T09:52:58.281Z,35.27
2019-06-26T09:55:27.563Z,35.46
2019-06-26T09:57:56.773Z,35.48
2019-06-26T10:00:26.220Z,35.46
2019-06-26T10:02:55.496Z,35.55
2019-06-26T10:05:24.559Z,35.58
2019-06-26T10:07:53.694Z,35.80
2019-06-26T10:10:22.938Z,36.00
2019-06-26T10:12:52.053Z,35.73
2019-06-26T10:15:21.356Z,35.85
2019-06-26T10:17:50.533Z,35.97
2019-06-26T10:20:19.999Z,35.96
2019-06-26T10:22:49.213Z,36.19
2019-06-26T10:25:18.600Z,35.99
2019-06-26T10:27:47.659Z,36.08
2019-06-26T10:30:17.033Z,36.05
2019-06-26T10:32:46.198Z,36.19
2019-06-26T10:35:15.407Z,36.37
2019-06-26T10:37:44.485Z,36.48
2019-06-26T10:40:16.326Z,36.52
2019-06-26T10:42:44.705Z,36.48
2019-06-26T10:45:14.353Z,36.26
2019-06-26T10:47:43.462Z,36.23
2019-06-26T10:50:14.600Z,36.33
2019-06-26T10:52:43.730Z,36.07
2019-06-26T10:55:12.933Z,36.26
2019-06-26T10:57:42.028Z,35.81
2019-06-26T11:00:11.301Z,35.81
2019-06-26T11:02:40.424Z,36.03
2019-06-26T11:05:10.185Z,36.34
2019-06-26T11:07:39.309Z,36.70
2019-06-26T11:10:09.664Z,36.72
2019-06-26T11:12:38.997Z,36.98
2019-06-26T11:15:08.495Z,36.93
2019-06-26T11:17:37.792Z,36.77
2019-06-26T11:20:07.499Z,36.82
2019-06-26T11:22:36.713Z,36.66
2019-06-26T11:25:06.323Z,36.80
2019-06-26T11:27:35.627Z,36.63
2019-06-26T11:30:06.251Z,36.75
2019-06-26T11:32:35.416Z,36.27
2019-06-26T11:35:05.754Z,36.48
2019-06-26T11:37:34.850Z,36.52
2019-06-26T11:40:04.547Z,36.46
2019-06-26T11:42:34.086Z,36.60
2019-06-26T11:45:03.427Z,37.06
2019-06-26T11:47:32.539Z,37.20
2019-06-26T11:50:01.611Z,36.74
2019-06-26T11:52:30.708Z,36.63
2019-06-26T11:55:02.905Z,36.94
2019-06-26T11:57:31.326Z,37.02
2019-06-26T12:00:00.569Z,36.58
2019-06-26T12:02:29.703Z,36.76
2019-06-26T12:04:58.823Z,36.79
2019-06-26T12:07:28.085Z,36.66
2019-06-26T12:09:57.322Z,36.93
2019-06-26T12:12:26.725Z,37.17
2019-06-26T12:14:56.030Z,37.15
2019-06-26T12:17:25.175Z,36.97
2019-06-26T12:19:54.635Z,37.09
2019-06-26T12:22:23.702Z,37.34
2019-06-26T12:24:52.795Z,36.78
2019-06-26T12:27:21.911Z,36.56
2019-06-26T12:29:51.022Z,36.75
2019-06-26T12:32:20.273Z,36.41
2019-06-26T12:34:49.773Z,36.74
2019-06-26T12:37:18.996Z,37.03
2019-06-26T12:39:48.107Z,37.15
2019-06-26T12:42:17.203Z,37.08
2019-06-26T12:44:46.486Z,37.08
2019-06-26T12:47:15.553Z,36.92
2019-06-26T12:49:44.850Z,37.03
2019-06-26T12:52:16.922Z,37.25
2019-06-26T12:54:45.134Z,37.50
2019-06-26T12:57:14.384Z,37.74
2019-06-26T12:59:56.697Z,37.73
2019-06-26T13:02:14.867Z,37.81
2019-06-26T13:04:45.054Z,37.97
2019-06-26T13:07:14.416Z,37.81
2019-06-26T13:09:43.558Z,38.01
2019-06-26T13:12:12.712Z,38.19
2019-06-26T13:14:41.869Z,38.32
2019-06-26T13:17:11.201Z,38.33
2019-06-26T13:19:40.339Z,38.17
2019-06-26T13:22:09.669Z,37.72
2019-06-26T13:24:38.871Z,37.37
2019-06-26T13:27:07.961Z,37.41
2019-06-26T13:29:37.336Z,37.25
2019-06-26T13:32:06.619Z,37.22
2019-06-26T13:34:35.730Z,37.29
2019-06-26T13:37:07.318Z,37.46
2019-06-26T13:39:36.023Z,37.59
2019-06-26T13:42:05.369Z,37.80
2019-06-26T13:44:34.556Z,38.05
2019-06-26T13:47:03.710Z,38.17
2019-06-26T13:49:33.074Z,37.98
2019-06-26T13:52:03.134Z,37.62
2019-06-26T13:54:32.254Z,37.76
2019-06-26T13:57:01.557Z,37.84
2019-06-26T13:59:30.850Z,38.06
2019-06-26T14:02:00.024Z,38.13
2019-06-26T14:04:29.279Z,38.09
2019-06-26T14:06:58.438Z,37.65
2019-06-26T14:09:27.604Z,37.71
2019-06-26T14:11:56.910Z,37.70
2019-06-26T14:14:40.721Z,37.58
2019-06-26T14:16:56.998Z,37.67
2019-06-26T14:19:26.960Z,37.59
2019-06-26T14:21:56.148Z,37.68
2019-06-26T14:24:25.350Z,37.69
2019-06-26T14:26:54.393Z,37.69
2019-06-26T14:29:23.440Z,37.61
2019-06-26T14:31:52.829Z,37.67
2019-06-26T14:34:27.770Z,37.53
2019-06-26T14:36:55.061Z,37.63
2019-06-26T14:39:24.182Z,37.48
2019-06-26T14:41:53.487Z,37.32
2019-06-26T14:44:22.736Z,37.43
2019-06-26T14:46:51.799Z,37.43
2019-06-26T14:49:21.219Z,37.48
2019-06-26T14:51:50.359Z,37.65
2019-06-26T14:54:19.623Z,37.51
2019-06-26T14:56:48.678Z,37.46
2019-06-26T14:59:18.042Z,37.50
2019-06-26T15:01:47.179Z,37.35
2019-06-26T15:04:16.304Z,37.18
2019-06-26T15:06:45.623Z,37.14
2019-06-26T15:09:14.873Z,37.19
2019-06-26T15:11:43.945Z,37.31
2019-06-26T15:14:13.376Z,37.19
2019-06-26T15:16:42.611Z,37.34
2019-06-26T15:19:11.943Z,37.20
2019-06-26T15:21:48.643Z,37.04
2019-06-26T15:24:12.540Z,37.17
2019-06-26T15:26:41.619Z,37.29
2019-06-26T15:29:10.062Z,37.45
2019-06-26T15:31:39.165Z,37.45
2019-06-26T15:34:08.262Z,37.51
2019-06-26T15:36:37.404Z,37.30
2019-06-26T15:39:07.753Z,37.18
2019-06-26T15:41:36.806Z,37.23
2019-06-26T15:44:06.063Z,37.27
2019-06-26T15:46:37.366Z,37.34
2019-06-26T15:49:06.442Z,37.10
2019-06-26T15:51:35.722Z,37.15
2019-06-26T15:54:04.813Z,36.88
2019-06-26T15:56:34.183Z,37.07
2019-06-26T15:59:03.267Z,37.05
2019-06-26T16:01:32.557Z,36.98
2019-06-26T16:04:01.629Z,37.04
2019-06-26T16:06:30.813Z,37.08
2019-06-26T16:09:00.269Z,37.13
2019-06-26T16:11:29.337Z,37.11
2019-06-26T16:13:59.453Z,37.07
2019-06-26T16:16:29.137Z,36.92
2019-06-26T16:19:03.641Z,36.92
2019-06-26T16:21:32.941Z,36.96
2019-06-26T16:24:02.330Z,36.91
2019-06-26T16:26:31.429Z,36.92
2019-06-26T16:29:00.571Z,36.79
2019-06-26T16:31:29.938Z,36.73
2019-06-26T16:33:59.194Z,36.71
2019-06-26T16:36:28.349Z,36.59
2019-06-26T16:38:57.556Z,36.53
2019-06-26T16:41:26.766Z,36.42
2019-06-26T16:43:55.958Z,36.57
2019-06-26T16:46:25.497Z,36.48
2019-06-26T16:48:54.565Z,36.42
2019-06-26T16:51:23.716Z,36.48
2019-06-26T16:53:52.766Z,36.28
2019-06-26T16:56:22.266Z,36.32
2019-06-26T16:58:51.350Z,36.38
2019-06-26T17:01:20.650Z,36.32
2019-06-26T17:03:49.727Z,36.22
2019-06-26T17:06:19.059Z,36.21
2019-06-26T17:08:48.320Z,36.03
2019-06-26T17:11:17.475Z,35.96
2019-06-26T17:13:46.950Z,35.94
2019-06-26T17:16:16.043Z,35.90
2019-06-26T17:18:45.155Z,35.90
2019-06-26T17:21:14.413Z,35.90
2019-06-26T17:23:43.838Z,35.90
2019-06-26T17:26:13.063Z,35.85
2019-06-26T17:28:42.343Z,35.71
2019-06-26T17:31:11.527Z,35.73
2019-06-26T17:33:40.876Z,35.69
2019-06-26T17:36:10.019Z,35.55
2019-06-26T17:38:39.219Z,35.52
2019-06-26T17:41:08.426Z,35.42
2019-06-26T17:43:37.517Z,35.40
2019-06-26T17:46:06.619Z,35.34
2019-06-26T17:48:36.881Z,35.32
2019-06-26T17:51:06.008Z,35.28
2019-06-26T17:53:35.499Z,35.22
2019-06-26T17:56:04.574Z,35.12
2019-06-26T17:58:33.720Z,35.02
2019-06-26T18:01:03.115Z,34.98
2019-06-26T18:03:32.501Z,34.87
2019-06-26T18:06:02.179Z,34.82
2019-06-26T18:08:31.540Z,34.79
2019-06-26T18:11:00.748Z,34.74
2019-06-26T18:13:29.936Z,34.65
2019-06-26T18:15:59.380Z,34.55
2019-06-26T18:18:28.490Z,34.41
2019-06-26T18:20:57.996Z,34.35
2019-06-26T18:23:37.203Z,34.29
2019-06-26T18:26:11.861Z,34.23
2019-06-26T18:28:29.271Z,34.14
2019-06-26T18:30:58.385Z,34.07
2019-06-26T18:33:27.629Z,33.99
2019-06-26T18:35:56.941Z,33.91
2019-06-26T18:38:26.061Z,33.83
2019-06-26T18:40:55.322Z,33.72
2019-06-26T18:43:24.536Z,33.70
2019-06-26T18:45:54.178Z,33.62
2019-06-26T18:48:24.990Z,33.49
2019-06-26T18:50:54.335Z,33.39
2019-06-26T18:53:23.558Z,33.28
2019-06-26T18:55:52.640Z,33.16
2019-06-26T18:58:21.854Z,33.05
2019-06-26T19:00:51.186Z,32.94
2019-06-26T19:03:20.286Z,32.83
2019-06-26T19:05:49.500Z,32.70
2019-06-26T19:08:18.668Z,32.55
2019-06-26T19:10:47.928Z,32.43
2019-06-26T19:13:20.303Z,32.16
2019-06-26T19:15:48.264Z,32.08
2019-06-26T19:18:17.606Z,31.96
2019-06-26T19:20:46.912Z,31.66
2019-06-26T19:23:16.247Z,31.58
2019-06-26T19:25:45.363Z,31.52
2019-06-26T19:28:14.734Z,31.36
2019-06-26T19:30:44.017Z,31.26
2019-06-26T19:33:13.274Z,31.09
2019-06-26T19:35:42.575Z,30.96
2019-06-26T19:38:11.711Z,30.81
2019-06-26T19:40:42.871Z,30.74
2019-06-26T19:43:12.004Z,30.76
2019-06-26T19:45:41.144Z,30.68
2019-06-26T19:48:10.234Z,30.58
2019-06-26T19:50:39.628Z,30.49
2019-06-26T19:53:08.693Z,30.32
2019-06-26T19:55:38.928Z,30.23
2019-06-26T19:58:08.003Z,30.08
2019-06-26T20:00:37.168Z,30.05
2019-06-26T20:03:06.597Z,29.98
2019-06-26T20:05:35.813Z,29.81
2019-06-26T20:08:04.919Z,29.77
2019-06-26T20:10:34.061Z,29.70
2019-06-26T20:13:03.252Z,29.72
2019-06-26T20:15:32.599Z,29.65
2019-06-26T20:18:04.203Z,29.53
2019-06-26T20:20:32.944Z,29.36
2019-06-26T20:23:02.401Z,29.22
2019-06-26T20:25:31.597Z,29.25
2019-06-26T20:28:00.719Z,29.14
2019-06-26T20:30:33.283Z,29.04
2019-06-26T20:33:02.407Z,29.01
2019-06-26T20:35:31.996Z,28.95
2019-06-26T20:38:02.042Z,28.81
2019-06-26T20:40:31.186Z,28.69
2019-06-26T20:43:00.323Z,28.66
2019-06-26T20:45:29.440Z,28.64
2019-06-26T20:48:00.657Z,28.68
2019-06-26T20:50:30.127Z,28.66
2019-06-26T20:52:59.224Z,28.50
2019-06-26T20:55:28.361Z,28.48
2019-06-26T20:57:57.475Z,28.53
2019-06-26T21:00:26.756Z,28.53
2019-06-26T21:02:55.988Z,28.50
2019-06-26T21:05:28.627Z,28.40
2019-06-26T21:07:56.125Z,28.35
2019-06-26T21:10:25.238Z,28.26
2019-06-26T21:12:54.582Z,28.16
2019-06-26T21:15:23.716Z,28.14
2019-06-26T21:17:52.821Z,28.05
2019-06-26T21:20:22.345Z,28.10
2019-06-26T21:22:53.349Z,28.00
2019-06-26T21:25:22.510Z,27.96
2019-06-26T21:27:51.658Z,27.96
2019-06-26T21:30:21.190Z,27.85
2019-06-26T21:32:50.361Z,27.89
2019-06-26T21:35:19.626Z,27.93
2019-06-26T21:37:48.758Z,27.86
2019-06-26T21:40:17.822Z,27.85
2019-06-26T21:42:47.353Z,27.77
2019-06-26T21:45:19.925Z,27.71
2019-06-26T21:47:47.611Z,27.69
2019-06-26T21:50:16.673Z,27.69
2019-06-26T21:52:45.780Z,27.62
2019-06-26T21:55:14.903Z,27.57
2019-06-26T21:57:44.268Z,27.55
2019-06-26T22:00:13.992Z,27.48
2019-06-26T22:02:43.087Z,27.48
2019-06-26T22:05:13.115Z,27.49
2019-06-26T22:07:42.219Z,27.52
2019-06-26T22:10:11.621Z,27.48
2019-06-26T22:12:40.716Z,27.46
2019-06-26T22:15:09.996Z,27.44
2019-06-26T22:17:39.184Z,27.39
2019-06-26T22:20:12.358Z,27.41
2019-06-26T22:22:39.392Z,27.47
2019-06-26T22:25:08.837Z,27.46
2019-06-26T22:27:37.938Z,27.46
2019-06-26T22:30:08.163Z,27.40
2019-06-26T22:32:37.287Z,27.37
2019-06-26T22:35:07.233Z,27.35
2019-06-26T22:37:36.354Z,27.36
2019-06-26T22:40:05.951Z,27.25
2019-06-26T22:42:35.203Z,27.23
2019-06-26T22:45:04.536Z,27.23
2019-06-26T22:47:33.789Z,27.24
2019-06-26T22:50:02.932Z,27.24
2019-06-26T22:52:32.049Z,27.00
2019-06-26T22:55:01.353Z,26.84
2019-06-26T22:57:30.462Z,26.73
2019-06-26T22:59:59.679Z,26.63
2019-06-26T23:02:28.921Z,26.63
2019-06-26T23:04:58.151Z,26.52
2019-06-26T23:07:27.477Z,26.53
2019-06-26T23:09:56.560Z,26.53
2019-06-26T23:12:25.716Z,26.57
2019-06-26T23:14:55.057Z,26.58
2019-06-26T23:17:24.222Z,26.53
2019-06-26T23:19:53.498Z,26.49
2019-06-26T23:22:22.682Z,26.39
2019-06-26T23:24:51.943Z,26.33
2019-06-26T23:27:21.174Z,26.28
2019-06-26T23:29:50.361Z,26.25
2019-06-26T23:32:19.650Z,26.23
2019-06-26T23:34:48.748Z,26.18
2019-06-26T23:37:18.051Z,26.18
2019-06-26T23:39:48.119Z,26.14
2019-06-26T23:42:17.799Z,26.14
2019-06-26T23:44:46.898Z,26.16
2019-06-26T23:47:16.289Z,26.15
2019-06-26T23:49:45.325Z,26.11
2019-06-26T23:52:16.344Z,26.04
2019-06-26T23:54:45.586Z,26.00
2019-06-26T23:57:14.728Z,25.96
2019-06-26T23:59:43.902Z,25.96
